sensor_id;sensor_type;location;lat;lon;timestamp;P1;durP1;ratioP1;P2;durP2;ratioP2
14088;SDS011;7120;52.890;6.040;2022-12-20T00:01:21;4.37;;;3.97;;
14088;SDS011;7120;52.890;6.040;2022-12-20T00:03:48;4.83;;;4.17;;
14088;SDS011;7120;52.890;6.040;2022-12-20T00:06:15;7.63;;;4.10;;
14088;SDS011;7120;52.890;6.040;2022-12-20T00:08:42;5.30;;;4.80;;
14088;SDS011;7120;52.890;6.040;2022-12-20T00:11:08;4.93;;;3.57;;
14088;SDS011;7120;52.890;6.040;2022-12-20T00:13:34;4.23;;;3.60;;
14088;SDS011;7120;52.890;6.040;2022-12-20T00:16:07;8.33;;;4.27;;
14088;SDS011;7120;52.890;6.040;2022-12-20T00:18:34;4.17;;;3.77;;
14088;SDS011;7120;52.890;6.040;2022-12-20T00:21:01;6.47;;;4.07;;
14088;SDS011;7120;52.890;6.040;2022-12-20T00:23:28;5.93;;;3.93;;
14088;SDS011;7120;52.890;6.040;2022-12-20T00:26:13;6.53;;;5.63;;
14088;SDS011;7120;52.890;6.040;2022-12-20T00:28:41;5.60;;;3.70;;
14088;SDS011;7120;52.890;6.040;2022-12-20T00:31:07;5.00;;;4.23;;
14088;SDS011;7120;52.890;6.040;2022-12-20T00:33:36;4.70;;;3.77;;
14088;SDS011;7120;52.890;6.040;2022-12-20T00:36:03;4.43;;;3.57;;
14088;SDS011;7120;52.890;6.040;2022-12-20T00:38:29;5.03;;;3.83;;
14088;SDS011;7120;52.890;6.040;2022-12-20T00:40:59;6.47;;;4.00;;
14088;SDS011;7120;52.890;6.040;2022-12-20T00:43:32;4.60;;;3.57;;
14088;SDS011;7120;52.890;6.040;2022-12-20T00:45:58;6.83;;;3.83;;
14088;SDS011;7120;52.890;6.040;2022-12-20T00:48:25;4.47;;;3.33;;
14088;SDS011;7120;52.890;6.040;2022-12-20T00:50:50;4.40;;;3.83;;
14088;SDS011;7120;52.890;6.040;2022-12-20T00:53:17;5.07;;;3.90;;
14088;SDS011;7120;52.890;6.040;2022-12-20T00:55:43;4.83;;;3.77;;
14088;SDS011;7120;52.890;6.040;2022-12-20T00:58:10;4.47;;;3.70;;
14088;SDS011;7120;52.890;6.040;2022-12-20T01:00:36;5.70;;;3.60;;
14088;SDS011;7120;52.890;6.040;2022-12-20T01:03:02;4.67;;;3.83;;
14088;SDS011;7120;52.890;6.040;2022-12-20T01:05:28;7.47;;;4.10;;
14088;SDS011;7120;52.890;6.040;2022-12-20T01:07:53;4.87;;;3.87;;
14088;SDS011;7120;52.890;6.040;2022-12-20T01:10:19;4.10;;;3.70;;
14088;SDS011;7120;52.890;6.040;2022-12-20T01:12:44;4.03;;;3.63;;
14088;SDS011;7120;52.890;6.040;2022-12-20T01:15:11;4.80;;;3.53;;
14088;SDS011;7120;52.890;6.040;2022-12-20T01:17:37;5.23;;;3.57;;
14088;SDS011;7120;52.890;6.040;2022-12-20T01:20:03;3.80;;;3.30;;
14088;SDS011;7120;52.890;6.040;2022-12-20T01:22:29;4.83;;;3.40;;
14088;SDS011;7120;52.890;6.040;2022-12-20T01:24:54;4.03;;;3.47;;
14088;SDS011;7120;52.890;6.040;2022-12-20T01:27:19;4.57;;;3.70;;
14088;SDS011;7120;52.890;6.040;2022-12-20T01:29:45;4.43;;;3.47;;
14088;SDS011;7120;52.890;6.040;2022-12-20T01:32:12;5.10;;;3.33;;
14088;SDS011;7120;52.890;6.040;2022-12-20T01:34:38;3.83;;;3.43;;
14088;SDS011;7120;52.890;6.040;2022-12-20T01:37:03;4.03;;;3.50;;
14088;SDS011;7120;52.890;6.040;2022-12-20T01:39:30;5.57;;;3.30;;
14088;SDS011;7120;52.890;6.040;2022-12-20T01:41:55;4.00;;;3.60;;
14088;SDS011;7120;52.890;6.040;2022-12-20T01:46:47;4.73;;;3.50;;
14088;SDS011;7120;52.890;6.040;2022-12-20T01:49:21;4.83;;;3.20;;
14088;SDS011;7120;52.890;6.040;2022-12-20T01:51:48;6.70;;;3.43;;
14088;SDS011;7120;52.890;6.040;2022-12-20T01:54:18;4.40;;;3.30;;
14088;SDS011;7120;52.890;6.040;2022-12-20T01:56:58;3.93;;;3.07;;
14088;SDS011;7120;52.890;6.040;2022-12-20T01:59:27;3.40;;;3.10;;
14088;SDS011;7120;52.890;6.040;2022-12-20T02:01:56;4.83;;;3.20;;
14088;SDS011;7120;52.890;6.040;2022-12-20T02:04:23;4.60;;;3.23;;
14088;SDS011;7120;52.890;6.040;2022-12-20T02:06:48;4.70;;;3.10;;
14088;SDS011;7120;52.890;6.040;2022-12-20T02:09:15;4.57;;;3.70;;
14088;SDS011;7120;52.890;6.040;2022-12-20T02:22:45;5.43;;;3.77;;
14088;SDS011;7120;52.890;6.040;2022-12-20T02:30:57;5.13;;;3.83;;
14088;SDS011;7120;52.890;6.040;2022-12-20T02:33:28;6.67;;;4.80;;
14088;SDS011;7120;52.890;6.040;2022-12-20T02:35:54;9.00;;;5.50;;
14088;SDS011;7120;52.890;6.040;2022-12-20T02:38:37;6.43;;;5.10;;
14088;SDS011;7120;52.890;6.040;2022-12-20T02:44:04;6.53;;;5.43;;
14088;SDS011;7120;52.890;6.040;2022-12-20T02:46:57;7.90;;;5.97;;
14088;SDS011;7120;52.890;6.040;2022-12-20T02:49:28;8.67;;;5.70;;
14088;SDS011;7120;52.890;6.040;2022-12-20T02:51:57;7.53;;;6.27;;
14088;SDS011;7120;52.890;6.040;2022-12-20T02:54:26;11.40;;;6.60;;
14088;SDS011;7120;52.890;6.040;2022-12-20T02:59:55;9.57;;;6.17;;
14088;SDS011;7120;52.890;6.040;2022-12-20T03:02:29;8.57;;;6.07;;
14088;SDS011;7120;52.890;6.040;2022-12-20T03:05:15;10.53;;;6.63;;
14088;SDS011;7120;52.890;6.040;2022-12-20T03:07:55;9.23;;;6.33;;
14088;SDS011;7120;52.890;6.040;2022-12-20T03:10:28;8.27;;;6.63;;
14088;SDS011;7120;52.890;6.040;2022-12-20T03:12:54;9.60;;;7.00;;
14088;SDS011;7120;52.890;6.040;2022-12-20T03:15:19;8.73;;;6.57;;
14088;SDS011;7120;52.890;6.040;2022-12-20T03:17:45;8.30;;;6.33;;
14088;SDS011;7120;52.890;6.040;2022-12-20T03:20:11;10.30;;;6.97;;
14088;SDS011;7120;52.890;6.040;2022-12-20T03:22:36;8.07;;;7.10;;
14088;SDS011;7120;52.890;6.040;2022-12-20T03:25:03;11.73;;;6.83;;
14088;SDS011;7120;52.890;6.040;2022-12-20T03:27:28;9.77;;;7.20;;
14088;SDS011;7120;52.890;6.040;2022-12-20T03:29:54;9.23;;;7.27;;
14088;SDS011;7120;52.890;6.040;2022-12-20T03:32:21;9.17;;;7.40;;
14088;SDS011;7120;52.890;6.040;2022-12-20T03:34:46;9.27;;;7.57;;
14088;SDS011;7120;52.890;6.040;2022-12-20T03:37:12;11.13;;;7.30;;
14088;SDS011;7120;52.890;6.040;2022-12-20T03:39:37;11.70;;;7.63;;
14088;SDS011;7120;52.890;6.040;2022-12-20T03:42:04;11.77;;;7.30;;
14088;SDS011;7120;52.890;6.040;2022-12-20T03:44:30;12.13;;;7.40;;
14088;SDS011;7120;52.890;6.040;2022-12-20T03:46:56;8.43;;;6.97;;
14088;SDS011;7120;52.890;6.040;2022-12-20T03:49:22;11.53;;;7.47;;
14088;SDS011;7120;52.890;6.040;2022-12-20T03:51:48;11.07;;;6.87;;
14088;SDS011;7120;52.890;6.040;2022-12-20T03:54:17;8.90;;;7.33;;
14088;SDS011;7120;52.890;6.040;2022-12-20T03:56:42;11.43;;;6.70;;
14088;SDS011;7120;52.890;6.040;2022-12-20T03:59:08;7.83;;;6.83;;
14088;SDS011;7120;52.890;6.040;2022-12-20T04:01:33;10.37;;;6.87;;
14088;SDS011;7120;52.890;6.040;2022-12-20T04:04:00;9.97;;;7.30;;
14088;SDS011;7120;52.890;6.040;2022-12-20T04:06:26;10.60;;;7.53;;
14088;SDS011;7120;52.890;6.040;2022-12-20T04:08:51;9.40;;;6.57;;
14088;SDS011;7120;52.890;6.040;2022-12-20T04:11:18;9.53;;;6.97;;
14088;SDS011;7120;52.890;6.040;2022-12-20T04:13:47;7.53;;;6.07;;
14088;SDS011;7120;52.890;6.040;2022-12-20T04:16:15;12.37;;;7.60;;
14088;SDS011;7120;52.890;6.040;2022-12-20T04:18:43;8.90;;;6.63;;
14088;SDS011;7120;52.890;6.040;2022-12-20T04:21:09;8.30;;;6.63;;
14088;SDS011;7120;52.890;6.040;2022-12-20T04:23:37;8.20;;;6.87;;
14088;SDS011;7120;52.890;6.040;2022-12-20T04:26:05;7.60;;;6.80;;
14088;SDS011;7120;52.890;6.040;2022-12-20T04:28:31;6.63;;;6.00;;
14088;SDS011;7120;52.890;6.040;2022-12-20T04:30:57;8.93;;;6.67;;
14088;SDS011;7120;52.890;6.040;2022-12-20T04:33:23;9.30;;;6.10;;
14088;SDS011;7120;52.890;6.040;2022-12-20T04:35:49;7.10;;;5.87;;
14088;SDS011;7120;52.890;6.040;2022-12-20T04:38:16;7.27;;;5.87;;
14088;SDS011;7120;52.890;6.040;2022-12-20T04:40:41;7.70;;;6.17;;
14088;SDS011;7120;52.890;6.040;2022-12-20T04:43:07;8.53;;;5.83;;
14088;SDS011;7120;52.890;6.040;2022-12-20T04:45:32;9.13;;;5.63;;
14088;SDS011;7120;52.890;6.040;2022-12-20T04:47:58;6.70;;;6.00;;
14088;SDS011;7120;52.890;6.040;2022-12-20T04:50:23;6.60;;;5.97;;
14088;SDS011;7120;52.890;6.040;2022-12-20T04:52:48;8.87;;;5.70;;
14088;SDS011;7120;52.890;6.040;2022-12-20T04:55:36;5.33;;;4.77;;
14088;SDS011;7120;52.890;6.040;2022-12-20T04:58:03;8.20;;;5.53;;
14088;SDS011;7120;52.890;6.040;2022-12-20T05:00:28;8.37;;;5.30;;
14088;SDS011;7120;52.890;6.040;2022-12-20T05:02:54;6.87;;;4.83;;
14088;SDS011;7120;52.890;6.040;2022-12-20T05:05:19;5.30;;;4.80;;
14088;SDS011;7120;52.890;6.040;2022-12-20T05:07:44;6.20;;;4.83;;
14088;SDS011;7120;52.890;6.040;2022-12-20T05:10:10;6.53;;;5.30;;
14088;SDS011;7120;52.890;6.040;2022-12-20T05:12:35;7.30;;;4.80;;
14088;SDS011;7120;52.890;6.040;2022-12-20T05:15:01;6.33;;;4.60;;
14088;SDS011;7120;52.890;6.040;2022-12-20T05:17:26;5.40;;;4.67;;
14088;SDS011;7120;52.890;6.040;2022-12-20T05:19:51;5.40;;;4.73;;
14088;SDS011;7120;52.890;6.040;2022-12-20T05:22:17;7.17;;;4.67;;
14088;SDS011;7120;52.890;6.040;2022-12-20T05:25:01;5.30;;;4.27;;
14088;SDS011;7120;52.890;6.040;2022-12-20T05:27:46;6.10;;;4.60;;
14088;SDS011;7120;52.890;6.040;2022-12-20T05:30:11;6.17;;;3.90;;
14088;SDS011;7120;52.890;6.040;2022-12-20T05:32:37;7.73;;;4.53;;
14088;SDS011;7120;52.890;6.040;2022-12-20T05:35:03;4.97;;;4.53;;
14088;SDS011;7120;52.890;6.040;2022-12-20T05:37:28;5.97;;;4.47;;
14088;SDS011;7120;52.890;6.040;2022-12-20T05:39:54;7.17;;;4.10;;
14088;SDS011;7120;52.890;6.040;2022-12-20T05:42:21;7.07;;;4.10;;
14088;SDS011;7120;52.890;6.040;2022-12-20T05:44:46;6.40;;;4.53;;
14088;SDS011;7120;52.890;6.040;2022-12-20T05:47:11;5.20;;;4.50;;
14088;SDS011;7120;52.890;6.040;2022-12-20T05:49:37;4.17;;;3.73;;
14088;SDS011;7120;52.890;6.040;2022-12-20T05:52:02;4.97;;;4.20;;
14088;SDS011;7120;52.890;6.040;2022-12-20T05:54:28;4.53;;;4.10;;
14088;SDS011;7120;52.890;6.040;2022-12-20T05:56:53;5.43;;;3.87;;
14088;SDS011;7120;52.890;6.040;2022-12-20T05:59:19;5.63;;;3.90;;
14088;SDS011;7120;52.890;6.040;2022-12-20T06:01:44;4.70;;;3.90;;
14088;SDS011;7120;52.890;6.040;2022-12-20T06:04:10;6.03;;;4.13;;
14088;SDS011;7120;52.890;6.040;2022-12-20T06:06:36;4.57;;;4.13;;
14088;SDS011;7120;52.890;6.040;2022-12-20T06:09:03;4.17;;;3.70;;
14088;SDS011;7120;52.890;6.040;2022-12-20T06:11:28;8.77;;;3.90;;
14088;SDS011;7120;52.890;6.040;2022-12-20T06:13:54;3.73;;;3.43;;
14088;SDS011;7120;52.890;6.040;2022-12-20T06:16:19;4.63;;;4.00;;
14088;SDS011;7120;52.890;6.040;2022-12-20T06:18:47;5.13;;;4.57;;
14088;SDS011;7120;52.890;6.040;2022-12-20T06:21:14;7.80;;;5.30;;
14088;SDS011;7120;52.890;6.040;2022-12-20T06:23:40;7.70;;;5.43;;
14088;SDS011;7120;52.890;6.040;2022-12-20T06:26:05;7.10;;;5.87;;
14088;SDS011;7120;52.890;6.040;2022-12-20T06:28:33;7.03;;;6.00;;
14088;SDS011;7120;52.890;6.040;2022-12-20T06:31:00;12.10;;;6.43;;
14088;SDS011;7120;52.890;6.040;2022-12-20T06:33:26;10.17;;;6.93;;
14088;SDS011;7120;52.890;6.040;2022-12-20T06:35:52;10.97;;;6.73;;
14088;SDS011;7120;52.890;6.040;2022-12-20T06:38:17;12.73;;;7.63;;
14088;SDS011;7120;52.890;6.040;2022-12-20T06:40:43;9.37;;;7.20;;
14088;SDS011;7120;52.890;6.040;2022-12-20T06:43:08;13.17;;;7.67;;
14088;SDS011;7120;52.890;6.040;2022-12-20T06:45:35;14.20;;;8.17;;
14088;SDS011;7120;52.890;6.040;2022-12-20T06:48:01;11.83;;;7.53;;
14088;SDS011;7120;52.890;6.040;2022-12-20T06:50:27;11.97;;;8.63;;
14088;SDS011;7120;52.890;6.040;2022-12-20T06:52:52;15.13;;;8.63;;
14088;SDS011;7120;52.890;6.040;2022-12-20T06:55:19;12.33;;;8.40;;
14088;SDS011;7120;52.890;6.040;2022-12-20T06:57:44;10.53;;;8.00;;
14088;SDS011;7120;52.890;6.040;2022-12-20T07:00:10;9.30;;;7.80;;
14088;SDS011;7120;52.890;6.040;2022-12-20T07:02:37;15.07;;;9.00;;
14088;SDS011;7120;52.890;6.040;2022-12-20T07:05:03;11.03;;;8.47;;
14088;SDS011;7120;52.890;6.040;2022-12-20T07:07:30;13.30;;;8.93;;
14088;SDS011;7120;52.890;6.040;2022-12-20T07:09:56;11.27;;;8.23;;
14088;SDS011;7120;52.890;6.040;2022-12-20T07:12:21;10.90;;;8.73;;
14088;SDS011;7120;52.890;6.040;2022-12-20T07:14:47;14.03;;;9.33;;
14088;SDS011;7120;52.890;6.040;2022-12-20T07:17:13;11.00;;;9.03;;
14088;SDS011;7120;52.890;6.040;2022-12-20T07:19:39;13.53;;;9.60;;
14088;SDS011;7120;52.890;6.040;2022-12-20T07:22:04;11.93;;;8.27;;
14088;SDS011;7120;52.890;6.040;2022-12-20T07:24:32;14.20;;;9.93;;
14088;SDS011;7120;52.890;6.040;2022-12-20T07:27:00;13.50;;;9.53;;
14088;SDS011;7120;52.890;6.040;2022-12-20T07:29:25;12.07;;;8.70;;
14088;SDS011;7120;52.890;6.040;2022-12-20T07:31:52;14.10;;;9.30;;
14088;SDS011;7120;52.890;6.040;2022-12-20T07:34:19;12.37;;;8.20;;
14088;SDS011;7120;52.890;6.040;2022-12-20T07:36:45;19.40;;;9.70;;
14088;SDS011;7120;52.890;6.040;2022-12-20T07:39:12;14.30;;;9.70;;
14088;SDS011;7120;52.890;6.040;2022-12-20T07:41:37;12.70;;;8.77;;
14088;SDS011;7120;52.890;6.040;2022-12-20T07:44:04;12.27;;;8.90;;
14088;SDS011;7120;52.890;6.040;2022-12-20T07:46:30;12.73;;;9.23;;
14088;SDS011;7120;52.890;6.040;2022-12-20T07:48:57;13.20;;;8.93;;
14088;SDS011;7120;52.890;6.040;2022-12-20T07:51:30;10.87;;;8.80;;
14088;SDS011;7120;52.890;6.040;2022-12-20T07:54:09;14.00;;;9.43;;
14088;SDS011;7120;52.890;6.040;2022-12-20T07:56:41;14.13;;;9.30;;
14088;SDS011;7120;52.890;6.040;2022-12-20T07:59:11;11.10;;;9.63;;
14088;SDS011;7120;52.890;6.040;2022-12-20T08:01:40;10.53;;;8.60;;
14088;SDS011;7120;52.890;6.040;2022-12-20T08:04:12;13.40;;;9.03;;
14088;SDS011;7120;52.890;6.040;2022-12-20T08:06:40;13.60;;;9.53;;
14088;SDS011;7120;52.890;6.040;2022-12-20T08:09:06;15.53;;;10.00;;
14088;SDS011;7120;52.890;6.040;2022-12-20T08:11:36;9.53;;;8.23;;
14088;SDS011;7120;52.890;6.040;2022-12-20T08:14:07;8.97;;;7.93;;
14088;SDS011;7120;52.890;6.040;2022-12-20T08:16:33;11.17;;;8.00;;
14088;SDS011;7120;52.890;6.040;2022-12-20T08:18:59;14.30;;;8.70;;
14088;SDS011;7120;52.890;6.040;2022-12-20T08:21:24;9.67;;;7.70;;
14088;SDS011;7120;52.890;6.040;2022-12-20T08:23:51;9.57;;;8.10;;
14088;SDS011;7120;52.890;6.040;2022-12-20T08:26:17;8.47;;;7.63;;
14088;SDS011;7120;52.890;6.040;2022-12-20T08:28:42;8.33;;;7.33;;
14088;SDS011;7120;52.890;6.040;2022-12-20T08:31:08;6.73;;;6.13;;
14088;SDS011;7120;52.890;6.040;2022-12-20T08:33:35;8.50;;;6.43;;
14088;SDS011;7120;52.890;6.040;2022-12-20T08:36:03;7.10;;;6.13;;
14088;SDS011;7120;52.890;6.040;2022-12-20T08:38:30;7.43;;;6.13;;
14088;SDS011;7120;52.890;6.040;2022-12-20T08:41:02;7.53;;;5.40;;
14088;SDS011;7120;52.890;6.040;2022-12-20T08:43:32;6.50;;;5.70;;
14088;SDS011;7120;52.890;6.040;2022-12-20T08:45:59;8.83;;;5.77;;
14088;SDS011;7120;52.890;6.040;2022-12-20T08:48:25;6.67;;;5.07;;
14088;SDS011;7120;52.890;6.040;2022-12-20T08:50:58;11.73;;;10.53;;
14088;SDS011;7120;52.890;6.040;2022-12-20T08:53:25;6.80;;;4.70;;
14088;SDS011;7120;52.890;6.040;2022-12-20T08:55:52;7.10;;;4.83;;
14088;SDS011;7120;52.890;6.040;2022-12-20T08:58:18;4.93;;;4.23;;
14088;SDS011;7120;52.890;6.040;2022-12-20T09:00:44;5.90;;;5.27;;
14088;SDS011;7120;52.890;6.040;2022-12-20T09:03:10;6.73;;;4.70;;
14088;SDS011;7120;52.890;6.040;2022-12-20T09:05:47;8.37;;;4.20;;
14088;SDS011;7120;52.890;6.040;2022-12-20T09:08:15;5.00;;;4.50;;
14088;SDS011;7120;52.890;6.040;2022-12-20T09:10:41;5.17;;;4.30;;
14088;SDS011;7120;52.890;6.040;2022-12-20T09:13:07;6.10;;;4.10;;
14088;SDS011;7120;52.890;6.040;2022-12-20T09:15:34;4.83;;;4.00;;
14088;SDS011;7120;52.890;6.040;2022-12-20T09:18:00;7.97;;;4.43;;
14088;SDS011;7120;52.890;6.040;2022-12-20T09:20:26;5.53;;;4.20;;
14088;SDS011;7120;52.890;6.040;2022-12-20T09:22:53;4.10;;;3.70;;
14088;SDS011;7120;52.890;6.040;2022-12-20T09:25:19;4.30;;;3.90;;
14088;SDS011;7120;52.890;6.040;2022-12-20T09:27:45;6.83;;;4.17;;
14088;SDS011;7120;52.890;6.040;2022-12-20T09:30:15;7.90;;;4.30;;
14088;SDS011;7120;52.890;6.040;2022-12-20T09:32:41;4.87;;;4.33;;
14088;SDS011;7120;52.890;6.040;2022-12-20T09:35:06;7.23;;;4.40;;
14088;SDS011;7120;52.890;6.040;2022-12-20T09:37:32;7.03;;;5.53;;
14088;SDS011;7120;52.890;6.040;2022-12-20T09:39:57;9.40;;;5.80;;
14088;SDS011;7120;52.890;6.040;2022-12-20T09:42:24;6.77;;;5.13;;
14088;SDS011;7120;52.890;6.040;2022-12-20T09:44:52;8.40;;;5.00;;
14088;SDS011;7120;52.890;6.040;2022-12-20T09:47:30;18.90;;;17.17;;
14088;SDS011;7120;52.890;6.040;2022-12-20T09:49:59;7.57;;;6.13;;
14088;SDS011;7120;52.890;6.040;2022-12-20T09:58:13;8.10;;;5.30;;
14088;SDS011;7120;52.890;6.040;2022-12-20T10:00:53;7.43;;;4.80;;
14088;SDS011;7120;52.890;6.040;2022-12-20T10:03:26;5.93;;;4.80;;
14088;SDS011;7120;52.890;6.040;2022-12-20T10:05:59;8.20;;;4.53;;
14088;SDS011;7120;52.890;6.040;2022-12-20T10:11:12;6.43;;;4.40;;
14088;SDS011;7120;52.890;6.040;2022-12-20T10:14:49;6.13;;;4.13;;
14088;SDS011;7120;52.890;6.040;2022-12-20T10:16:47;5.40;;;4.40;;
14088;SDS011;7120;52.890;6.040;2022-12-20T10:22:22;6.47;;;3.90;;
14088;SDS011;7120;52.890;6.040;2022-12-20T10:25:12;7.53;;;4.40;;
14088;SDS011;7120;52.890;6.040;2022-12-20T10:27:41;4.90;;;4.10;;
14088;SDS011;7120;52.890;6.040;2022-12-20T10:30:15;6.80;;;4.10;;
14088;SDS011;7120;52.890;6.040;2022-12-20T10:32:48;6.93;;;4.00;;
14088;SDS011;7120;52.890;6.040;2022-12-20T10:40:34;5.27;;;3.93;;
14088;SDS011;7120;52.890;6.040;2022-12-20T10:43:20;7.60;;;4.57;;
14088;SDS011;7120;52.890;6.040;2022-12-20T10:46:00;5.87;;;4.50;;
14088;SDS011;7120;52.890;6.040;2022-12-20T10:51:01;7.07;;;4.10;;
14088;SDS011;7120;52.890;6.040;2022-12-20T10:53:58;5.40;;;3.90;;
14088;SDS011;7120;52.890;6.040;2022-12-20T10:56:26;4.80;;;4.10;;
14088;SDS011;7120;52.890;6.040;2022-12-20T10:59:21;6.03;;;3.90;;
14088;SDS011;7120;52.890;6.040;2022-12-20T11:01:55;5.97;;;3.77;;
14088;SDS011;7120;52.890;6.040;2022-12-20T11:06:52;4.83;;;3.93;;
14088;SDS011;7120;52.890;6.040;2022-12-20T11:14:42;4.60;;;4.10;;
14088;SDS011;7120;52.890;6.040;2022-12-20T11:22:42;5.27;;;4.30;;
14088;SDS011;7120;52.890;6.040;2022-12-20T11:25:19;4.57;;;4.17;;
14088;SDS011;7120;52.890;6.040;2022-12-20T11:34:16;4.40;;;4.00;;
14088;SDS011;7120;52.890;6.040;2022-12-20T11:56:35;7.87;;;6.03;;
14088;SDS011;7120;52.890;6.040;2022-12-20T11:59:03;7.10;;;5.53;;
14088;SDS011;7120;52.890;6.040;2022-12-20T12:01:32;6.33;;;5.73;;
14088;SDS011;7120;52.890;6.040;2022-12-20T12:07:23;10.63;;;9.20;;
14088;SDS011;7120;52.890;6.040;2022-12-20T12:09:51;8.07;;;7.27;;
14088;SDS011;7120;52.890;6.040;2022-12-20T12:15:21;7.27;;;6.57;;
14088;SDS011;7120;52.890;6.040;2022-12-20T12:18:02;9.90;;;7.83;;
14088;SDS011;7120;52.890;6.040;2022-12-20T12:29:19;13.03;;;8.90;;
14088;SDS011;7120;52.890;6.040;2022-12-20T12:37:15;9.90;;;8.10;;
14088;SDS011;7120;52.890;6.040;2022-12-20T12:45:28;10.03;;;8.63;;
14088;SDS011;7120;52.890;6.040;2022-12-20T12:48:01;10.23;;;8.50;;
14088;SDS011;7120;52.890;6.040;2022-12-20T12:50:38;11.83;;;8.83;;
14088;SDS011;7120;52.890;6.040;2022-12-20T12:55:45;9.23;;;8.33;;
14088;SDS011;7120;52.890;6.040;2022-12-20T13:08:48;9.23;;;7.37;;
14088;SDS011;7120;52.890;6.040;2022-12-20T13:16:53;9.57;;;8.57;;
14088;SDS011;7120;52.890;6.040;2022-12-20T13:19:39;8.57;;;7.67;;
14088;SDS011;7120;52.890;6.040;2022-12-20T13:22:22;8.63;;;7.63;;
14088;SDS011;7120;52.890;6.040;2022-12-20T13:24:58;8.73;;;7.87;;
14088;SDS011;7120;52.890;6.040;2022-12-20T13:38:03;11.57;;;10.10;;
14088;SDS011;7120;52.890;6.040;2022-12-20T13:40:50;11.30;;;10.10;;
14088;SDS011;7120;52.890;6.040;2022-12-20T13:45:50;10.97;;;9.47;;
14088;SDS011;7120;52.890;6.040;2022-12-20T13:48:51;12.53;;;11.27;;
14088;SDS011;7120;52.890;6.040;2022-12-20T13:51:20;10.93;;;9.83;;
14088;SDS011;7120;52.890;6.040;2022-12-20T13:59:14;13.70;;;11.03;;
14088;SDS011;7120;52.890;6.040;2022-12-20T14:01:50;11.83;;;10.67;;
14088;SDS011;7120;52.890;6.040;2022-12-20T14:04:19;12.83;;;11.50;;
14088;SDS011;7120;52.890;6.040;2022-12-20T14:06:51;12.70;;;11.40;;
14088;SDS011;7120;52.890;6.040;2022-12-20T14:09:36;12.27;;;11.07;;
14088;SDS011;7120;52.890;6.040;2022-12-20T14:12:09;13.23;;;11.50;;
14088;SDS011;7120;52.890;6.040;2022-12-20T14:14:44;12.70;;;11.50;;
14088;SDS011;7120;52.890;6.040;2022-12-20T14:17:14;12.73;;;11.53;;
14088;SDS011;7120;52.890;6.040;2022-12-20T14:22:36;12.97;;;11.67;;
14088;SDS011;7120;52.890;6.040;2022-12-20T14:25:05;13.57;;;12.37;;
14088;SDS011;7120;52.890;6.040;2022-12-20T14:27:34;117.50;;;95.43;;
14088;SDS011;7120;52.890;6.040;2022-12-20T14:30:02;14.43;;;13.13;;
14088;SDS011;7120;52.890;6.040;2022-12-20T14:32:29;27.80;;;25.27;;
14088;SDS011;7120;52.890;6.040;2022-12-20T14:34:55;15.40;;;13.93;;
14088;SDS011;7120;52.890;6.040;2022-12-20T14:39:55;17.47;;;15.77;;
14088;SDS011;7120;52.890;6.040;2022-12-20T14:42:26;16.90;;;15.33;;
14088;SDS011;7120;52.890;6.040;2022-12-20T14:45:15;18.00;;;15.53;;
14088;SDS011;7120;52.890;6.040;2022-12-20T14:47:53;18.27;;;16.47;;
14088;SDS011;7120;52.890;6.040;2022-12-20T14:50:29;21.77;;;19.20;;
14088;SDS011;7120;52.890;6.040;2022-12-20T14:53:00;19.67;;;17.57;;
14088;SDS011;7120;52.890;6.040;2022-12-20T14:58:00;32.33;;;25.00;;
14088;SDS011;7120;52.890;6.040;2022-12-20T15:00:31;24.10;;;19.53;;
14088;SDS011;7120;52.890;6.040;2022-12-20T15:02:59;25.57;;;19.80;;
14088;SDS011;7120;52.890;6.040;2022-12-20T15:08:15;24.73;;;20.83;;
14088;SDS011;7120;52.890;6.040;2022-12-20T15:10:59;24.20;;;19.97;;
14088;SDS011;7120;52.890;6.040;2022-12-20T15:13:35;25.40;;;20.50;;
14088;SDS011;7120;52.890;6.040;2022-12-20T15:16:03;27.50;;;21.13;;
14088;SDS011;7120;52.890;6.040;2022-12-20T15:18:50;29.73;;;22.93;;
14088;SDS011;7120;52.890;6.040;2022-12-20T15:21:24;25.73;;;22.20;;
14088;SDS011;7120;52.890;6.040;2022-12-20T15:23:59;28.53;;;22.30;;
14088;SDS011;7120;52.890;6.040;2022-12-20T15:26:26;29.27;;;22.63;;
14088;SDS011;7120;52.890;6.040;2022-12-20T15:28:53;27.33;;;22.53;;
14088;SDS011;7120;52.890;6.040;2022-12-20T15:31:20;26.63;;;21.63;;
14088;SDS011;7120;52.890;6.040;2022-12-20T15:33:48;26.40;;;22.27;;
14088;SDS011;7120;52.890;6.040;2022-12-20T15:36:19;28.87;;;21.57;;
14088;SDS011;7120;52.890;6.040;2022-12-20T15:38:46;26.97;;;22.27;;
14088;SDS011;7120;52.890;6.040;2022-12-20T15:41:15;25.77;;;22.30;;
14088;SDS011;7120;52.890;6.040;2022-12-20T15:43:44;29.70;;;23.73;;
14088;SDS011;7120;52.890;6.040;2022-12-20T15:46:10;29.93;;;23.03;;
14088;SDS011;7120;52.890;6.040;2022-12-20T15:48:36;32.60;;;23.97;;
14088;SDS011;7120;52.890;6.040;2022-12-20T15:51:06;31.07;;;25.33;;
14088;SDS011;7120;52.890;6.040;2022-12-20T15:53:49;29.03;;;23.47;;
14088;SDS011;7120;52.890;6.040;2022-12-20T15:56:19;39.83;;;33.77;;
14088;SDS011;7120;52.890;6.040;2022-12-20T15:58:46;26.53;;;22.67;;
14088;SDS011;7120;52.890;6.040;2022-12-20T16:01:15;56.53;;;49.93;;
14088;SDS011;7120;52.890;6.040;2022-12-20T16:03:43;34.03;;;27.97;;
14088;SDS011;7120;52.890;6.040;2022-12-20T16:06:10;33.87;;;25.00;;
14088;SDS011;7120;52.890;6.040;2022-12-20T16:08:39;36.57;;;25.47;;
14088;SDS011;7120;52.890;6.040;2022-12-20T16:11:06;35.87;;;26.77;;
14088;SDS011;7120;52.890;6.040;2022-12-20T16:13:37;32.23;;;24.67;;
14088;SDS011;7120;52.890;6.040;2022-12-20T16:16:03;31.00;;;25.33;;
14088;SDS011;7120;52.890;6.040;2022-12-20T16:18:30;39.10;;;31.60;;
14088;SDS011;7120;52.890;6.040;2022-12-20T16:20:56;35.60;;;26.80;;
14088;SDS011;7120;52.890;6.040;2022-12-20T16:23:21;35.00;;;25.90;;
14088;SDS011;7120;52.890;6.040;2022-12-20T16:25:47;37.47;;;25.47;;
14088;SDS011;7120;52.890;6.040;2022-12-20T16:28:14;39.03;;;27.80;;
14088;SDS011;7120;52.890;6.040;2022-12-20T16:30:40;35.93;;;27.80;;
14088;SDS011;7120;52.890;6.040;2022-12-20T16:33:05;36.70;;;27.10;;
14088;SDS011;7120;52.890;6.040;2022-12-20T16:35:35;34.77;;;24.63;;
14088;SDS011;7120;52.890;6.040;2022-12-20T16:38:03;39.00;;;26.60;;
14088;SDS011;7120;52.890;6.040;2022-12-20T16:40:29;38.03;;;27.33;;
14088;SDS011;7120;52.890;6.040;2022-12-20T16:42:58;38.10;;;26.73;;
14088;SDS011;7120;52.890;6.040;2022-12-20T16:45:26;43.23;;;26.83;;
14088;SDS011;7120;52.890;6.040;2022-12-20T16:47:53;42.37;;;26.67;;
14088;SDS011;7120;52.890;6.040;2022-12-20T16:50:19;44.07;;;27.93;;
14088;SDS011;7120;52.890;6.040;2022-12-20T16:52:46;44.07;;;27.77;;
14088;SDS011;7120;52.890;6.040;2022-12-20T16:55:19;55.47;;;33.93;;
14088;SDS011;7120;52.890;6.040;2022-12-20T16:57:46;50.50;;;32.87;;
14088;SDS011;7120;52.890;6.040;2022-12-20T17:00:19;45.83;;;30.37;;
14088;SDS011;7120;52.890;6.040;2022-12-20T17:02:47;57.73;;;31.97;;
14088;SDS011;7120;52.890;6.040;2022-12-20T17:05:22;55.83;;;32.87;;
14088;SDS011;7120;52.890;6.040;2022-12-20T17:07:55;57.40;;;34.80;;
14088;SDS011;7120;52.890;6.040;2022-12-20T17:10:22;58.10;;;33.47;;
14088;SDS011;7120;52.890;6.040;2022-12-20T17:12:49;50.07;;;31.97;;
14088;SDS011;7120;52.890;6.040;2022-12-20T17:15:20;61.70;;;33.17;;
14088;SDS011;7120;52.890;6.040;2022-12-20T17:17:53;75.90;;;46.87;;
14088;SDS011;7120;52.890;6.040;2022-12-20T17:20:20;78.40;;;44.10;;
14088;SDS011;7120;52.890;6.040;2022-12-20T17:22:48;61.27;;;33.00;;
14088;SDS011;7120;52.890;6.040;2022-12-20T17:25:16;62.20;;;37.00;;
14088;SDS011;7120;52.890;6.040;2022-12-20T17:27:57;75.57;;;33.97;;
14088;SDS011;7120;52.890;6.040;2022-12-20T17:30:23;85.33;;;39.27;;
14088;SDS011;7120;52.890;6.040;2022-12-20T17:32:50;72.53;;;36.63;;
14088;SDS011;7120;52.890;6.040;2022-12-20T17:35:24;78.30;;;35.53;;
14088;SDS011;7120;52.890;6.040;2022-12-20T17:37:49;82.03;;;36.07;;
14088;SDS011;7120;52.890;6.040;2022-12-20T17:40:18;96.80;;;48.37;;
14088;SDS011;7120;52.890;6.040;2022-12-20T17:42:43;77.17;;;36.70;;